createdAt,value
2022-08-17T00:01:01.877Z,13.95
2022-08-17T00:03:51.561Z,13.73
2022-08-17T00:06:37.011Z,16.15
2022-08-17T00:09:22.701Z,17.60
2022-08-17T00:12:41.742Z,17.35
2022-08-17T00:15:15.156Z,16.52
2022-08-17T00:18:00.500Z,14.18
2022-08-17T00:20:46.369Z,18.33
2022-08-17T00:23:31.594Z,17.63
2022-08-17T00:26:45.238Z,21.00
2022-08-17T00:29:24.775Z,18.77
2022-08-17T00:33:15.711Z,17.23
2022-08-17T00:35:18.294Z,17.60
2022-08-17T00:38:06.217Z,17.67
2022-08-17T00:40:59.070Z,14.90
2022-08-17T00:43:54.130Z,17.65
2022-08-17T00:46:42.317Z,17.60
2022-08-17T00:49:27.657Z,22.70
2022-08-17T00:52:16.623Z,21.88
2022-08-17T00:55:02.570Z,20.35
2022-08-17T00:57:55.172Z,19.88
2022-08-17T01:00:43.919Z,20.23
2022-08-17T01:03:31.064Z,19.10
2022-08-17T01:06:17.018Z,17.88
2022-08-17T01:09:04.786Z,20.05
2022-08-17T01:11:52.184Z,21.15
2022-08-17T01:14:38.255Z,19.27
2022-08-17T01:17:23.405Z,18.80
2022-08-17T01:20:09.565Z,17.77
2022-08-17T01:22:54.924Z,18.35
2022-08-17T01:25:41.481Z,19.63
2022-08-17T01:28:52.285Z,22.15
2022-08-17T01:31:45.383Z,20.92
2022-08-17T01:34:43.410Z,19.13
2022-08-17T01:37:36.403Z,17.63
2022-08-17T01:43:22.767Z,16.90
2022-08-17T01:46:08.146Z,16.50
2022-08-17T01:48:54.385Z,15.95
2022-08-17T01:51:39.928Z,16.98
2022-08-17T01:54:26.464Z,14.85
2022-08-17T01:57:11.916Z,16.35
2022-08-17T01:59:57.434Z,16.58
2022-08-17T02:02:45.062Z,17.27
2022-08-17T02:05:30.824Z,17.05
2022-08-17T02:08:20.384Z,15.85
2022-08-17T02:11:11.300Z,17.08
2022-08-17T02:14:02.825Z,15.93
2022-08-17T02:16:49.330Z,15.00
2022-08-17T02:19:34.857Z,15.57
2022-08-17T02:22:20.464Z,12.75
2022-08-17T02:25:09.302Z,13.00
2022-08-17T02:27:54.389Z,14.38
2022-08-17T02:31:02.204Z,17.55
2022-08-17T02:33:46.165Z,16.83
2022-08-17T02:36:45.706Z,19.50
2022-08-17T02:39:31.445Z,18.30
2022-08-17T02:42:16.976Z,18.10
2022-08-17T02:45:05.810Z,17.63
2022-08-17T02:47:52.099Z,22.90
2022-08-17T02:50:37.430Z,21.25
2022-08-17T02:53:22.805Z,27.65
2022-08-17T02:56:08.337Z,30.95
2022-08-17T02:58:53.848Z,34.75
2022-08-17T03:01:39.368Z,35.97
2022-08-17T03:04:24.878Z,34.67
2022-08-17T03:07:10.494Z,35.90
2022-08-17T03:09:56.123Z,32.95
2022-08-17T03:12:42.402Z,32.25
2022-08-17T03:15:31.544Z,25.73
2022-08-17T03:18:25.574Z,28.80
2022-08-17T03:21:11.497Z,28.38
2022-08-17T03:23:56.940Z,26.40
2022-08-17T03:26:42.888Z,25.10
2022-08-17T03:29:28.152Z,18.95
2022-08-17T03:32:15.959Z,16.30
2022-08-17T03:35:01.156Z,16.88
2022-08-17T03:37:46.921Z,15.35
2022-08-17T03:40:58.796Z,17.00
2022-08-17T03:43:45.035Z,15.95
2022-08-17T03:46:48.874Z,15.77
2022-08-17T03:49:52.812Z,17.80
2022-08-17T03:52:56.617Z,18.17
2022-08-17T03:56:00.711Z,16.42
2022-08-17T03:58:46.250Z,19.33
2022-08-17T04:01:32.188Z,20.92
2022-08-17T04:04:18.278Z,16.98
2022-08-17T04:07:04.003Z,21.08
2022-08-17T04:09:49.804Z,21.80
2022-08-17T04:12:54.567Z,24.38
2022-08-17T04:15:39.871Z,20.58
2022-08-17T04:18:26.029Z,27.77
2022-08-17T04:21:11.747Z,34.55
2022-08-17T04:23:58.172Z,38.67
2022-08-17T04:26:53.924Z,39.42
2022-08-17T04:29:50.885Z,46.20
2022-08-17T04:33:06.319Z,43.00
2022-08-17T04:35:56.780Z,47.83
2022-08-17T04:38:45.525Z,50.58
2022-08-17T04:41:49.425Z,50.13
2022-08-17T04:44:37.806Z,51.08
2022-08-17T04:47:23.906Z,43.38
2022-08-17T04:50:09.526Z,44.42
2022-08-17T04:52:55.193Z,47.42
2022-08-17T04:55:41.353Z,49.15
2022-08-17T04:58:27.025Z,60.42
2022-08-17T05:01:12.657Z,81.28
2022-08-17T05:04:00.634Z,70.82
2022-08-17T05:07:06.250Z,66.18
2022-08-17T05:09:51.558Z,68.72
2022-08-17T05:12:36.872Z,73.15
2022-08-17T05:15:22.184Z,64.97
2022-08-17T05:18:08.181Z,68.75
2022-08-17T05:20:54.046Z,60.65
2022-08-17T05:23:43.013Z,64.22
2022-08-17T05:26:29.457Z,58.67
2022-08-17T05:29:14.847Z,54.28
2022-08-17T05:32:38.145Z,52.85
2022-08-17T05:35:17.112Z,54.53
2022-08-17T05:38:02.541Z,53.83
2022-08-17T05:40:48.459Z,59.97
2022-08-17T05:43:37.566Z,65.55
2022-08-17T05:46:27.268Z,58.33
2022-08-17T05:49:14.861Z,57.33
2022-08-17T05:52:25.863Z,52.50
2022-08-17T05:55:42.961Z,52.10
2022-08-17T05:59:06.527Z,56.90
2022-08-17T06:01:57.685Z,48.65
2022-08-17T06:05:17.036Z,45.73
2022-08-17T06:08:23.407Z,41.75
2022-08-17T06:11:37.325Z,42.85
2022-08-17T06:14:41.917Z,41.30
2022-08-17T06:17:28.629Z,35.75
2022-08-17T06:20:16.062Z,35.38
2022-08-17T06:23:09.815Z,36.80
2022-08-17T06:25:59.998Z,31.98
2022-08-17T06:29:27.034Z,25.42
2022-08-17T06:32:14.719Z,23.45
2022-08-17T06:35:02.815Z,27.50
2022-08-17T06:38:04.261Z,25.08
2022-08-17T06:41:37.831Z,21.47
2022-08-17T06:44:52.084Z,16.70
2022-08-17T06:48:02.549Z,16.85
2022-08-17T06:50:53.373Z,16.90
2022-08-17T06:53:45.435Z,16.83
2022-08-17T06:56:53.373Z,13.85
2022-08-17T06:59:56.390Z,12.25
2022-08-17T07:02:52.832Z,11.18
2022-08-17T07:05:50.261Z,11.00
2022-08-17T07:08:58.303Z,12.15
2022-08-17T07:11:59.644Z,11.57
2022-08-17T07:15:01.044Z,12.63
2022-08-17T07:17:48.417Z,12.43
2022-08-17T07:20:34.800Z,12.48
2022-08-17T07:23:26.716Z,12.18
2022-08-17T07:26:13.321Z,12.52
2022-08-17T07:29:00.714Z,10.63
2022-08-17T07:31:46.274Z,11.57
2022-08-17T07:34:51.781Z,11.63
2022-08-17T07:37:40.086Z,10.20
2022-08-17T07:40:38.246Z,10.25
2022-08-17T07:43:26.123Z,10.30
2022-08-17T07:46:50.533Z,12.00
2022-08-17T07:49:39.576Z,12.60
2022-08-17T07:52:50.642Z,10.10
2022-08-17T07:55:41.382Z,9.40
2022-08-17T07:58:26.914Z,10.02
2022-08-17T08:01:18.360Z,10.23
2022-08-17T08:04:59.595Z,9.40
2022-08-17T08:07:50.433Z,9.55
2022-08-17T08:10:45.334Z,13.75
2022-08-17T08:13:32.426Z,11.05
2022-08-17T08:16:20.621Z,10.93
2022-08-17T08:19:05.999Z,11.25
2022-08-17T08:21:59.015Z,11.05
2022-08-17T08:25:07.261Z,11.00
2022-08-17T08:28:07.327Z,9.65
2022-08-17T08:31:13.884Z,9.93
2022-08-17T08:35:00.580Z,10.50
2022-08-17T08:37:55.633Z,9.88
2022-08-17T08:44:08.318Z,11.10
2022-08-17T08:47:01.966Z,10.95
2022-08-17T08:50:37.039Z,12.75
2022-08-17T08:53:30.590Z,13.18
2022-08-17T08:56:27.765Z,11.98
2022-08-17T08:59:24.844Z,13.80
2022-08-17T09:02:21.632Z,14.80
2022-08-17T09:05:20.224Z,16.23
2022-08-17T09:08:16.432Z,16.35
2022-08-17T09:11:31.046Z,17.73
2022-08-17T09:14:28.219Z,24.73
2022-08-17T09:17:25.293Z,18.80
2022-08-17T09:20:29.024Z,16.38
2022-08-17T09:23:39.278Z,14.93
2022-08-17T09:26:46.656Z,13.88
2022-08-17T09:29:36.538Z,16.15
2022-08-17T09:32:46.973Z,14.10
2022-08-17T09:35:55.900Z,13.98
2022-08-17T09:39:16.893Z,13.43
2022-08-17T09:42:07.548Z,15.77
2022-08-17T09:45:21.561Z,13.50
2022-08-17T09:48:41.535Z,12.20
2022-08-17T09:51:40.168Z,12.48
2022-08-17T09:54:39.152Z,15.95
2022-08-17T09:57:38.085Z,15.15
2022-08-17T10:00:27.930Z,13.40
2022-08-17T10:03:34.274Z,15.27
2022-08-17T10:06:24.956Z,13.23
2022-08-17T10:09:39.324Z,15.05
2022-08-17T10:12:55.441Z,13.57
2022-08-17T10:15:52.858Z,12.82
2022-08-17T10:18:47.927Z,12.65
2022-08-17T10:22:01.436Z,13.88
2022-08-17T10:25:22.412Z,12.45
2022-08-17T10:28:20.008Z,15.75
2022-08-17T10:34:30.330Z,20.92
2022-08-17T10:37:41.744Z,21.10
2022-08-17T10:41:00.378Z,22.50
2022-08-17T10:44:37.362Z,26.13
2022-08-17T10:47:16.465Z,29.92
2022-08-17T10:50:40.758Z,28.40
2022-08-17T10:53:50.228Z,32.03
2022-08-17T10:56:43.970Z,34.15
2022-08-17T10:59:38.571Z,34.90
2022-08-17T11:02:49.145Z,36.10
2022-08-17T11:06:01.710Z,43.42
2022-08-17T11:12:09.125Z,40.05
2022-08-17T11:15:19.669Z,43.58
2022-08-17T11:18:25.479Z,43.45
2022-08-17T11:21:32.676Z,46.75
2022-08-17T11:24:35.832Z,38.40
2022-08-17T11:27:30.898Z,33.65
2022-08-17T11:30:55.025Z,31.48
2022-08-17T11:33:44.649Z,28.48
2022-08-17T11:36:50.244Z,27.13
2022-08-17T11:40:13.363Z,29.55
2022-08-17T11:43:15.361Z,26.67
2022-08-17T11:46:20.377Z,26.42
2022-08-17T11:49:37.042Z,23.80
2022-08-17T11:52:39.784Z,23.63
2022-08-17T11:55:35.662Z,21.27
2022-08-17T11:58:37.401Z,21.88
2022-08-17T12:01:23.005Z,20.33
2022-08-17T12:04:28.440Z,19.70
2022-08-17T12:07:19.236Z,21.38
2022-08-17T12:10:06.010Z,18.90
2022-08-17T12:12:54.054Z,20.70
2022-08-17T12:15:48.678Z,19.58
2022-08-17T12:18:39.487Z,16.60
2022-08-17T12:21:58.067Z,18.57
2022-08-17T12:25:02.867Z,18.85
2022-08-17T12:28:06.291Z,16.05
2022-08-17T12:30:54.089Z,16.08
2022-08-17T12:33:44.374Z,18.50
2022-08-17T12:36:32.208Z,18.52
2022-08-17T12:39:25.079Z,20.08
2022-08-17T12:42:22.977Z,19.85
2022-08-17T12:45:24.937Z,22.67
2022-08-17T12:51:03.739Z,21.63
2022-08-17T12:53:55.104Z,23.33
2022-08-17T12:56:44.702Z,22.35
2022-08-17T12:59:33.304Z,23.00
2022-08-17T13:02:30.101Z,25.30
2022-08-17T13:05:37.499Z,25.33
2022-08-17T13:08:30.611Z,26.33
2022-08-17T13:11:16.398Z,24.58
2022-08-17T13:14:09.938Z,26.15
2022-08-17T13:17:00.723Z,28.13
2022-08-17T13:19:50.762Z,25.45
2022-08-17T13:22:36.349Z,27.23
2022-08-17T13:25:22.004Z,29.23
2022-08-17T13:28:18.881Z,29.02
2022-08-17T13:31:30.063Z,28.60
2022-08-17T13:34:26.809Z,28.42
2022-08-17T13:37:30.721Z,28.40
2022-08-17T13:40:15.809Z,26.40
2022-08-17T13:43:03.214Z,26.98
2022-08-17T13:45:51.256Z,30.52
2022-08-17T13:48:36.896Z,26.98
2022-08-17T13:51:28.460Z,28.60
2022-08-17T13:54:36.669Z,27.00
2022-08-17T13:57:24.659Z,26.92
2022-08-17T14:00:30.561Z,26.90
2022-08-17T14:03:15.917Z,28.20
2022-08-17T14:06:01.632Z,26.83
2022-08-17T14:08:47.423Z,26.40
2022-08-17T14:11:33.031Z,27.10
2022-08-17T14:14:18.903Z,24.60
2022-08-17T14:17:05.242Z,23.05
2022-08-17T14:19:53.695Z,21.30
2022-08-17T14:22:44.845Z,19.90
2022-08-17T14:25:30.251Z,18.83
2022-08-17T14:28:15.761Z,17.23
2022-08-17T14:31:01.215Z,17.17
2022-08-17T14:33:47.081Z,17.52
2022-08-17T14:36:33.101Z,16.65
2022-08-17T14:39:19.308Z,15.90
2022-08-17T14:42:05.190Z,18.00
2022-08-17T14:44:52.481Z,16.50
2022-08-17T14:47:40.146Z,15.40
2022-08-17T14:50:27.108Z,15.93
2022-08-17T14:53:16.047Z,15.90
2022-08-17T14:56:01.762Z,16.92
2022-08-17T14:58:47.172Z,16.55
2022-08-17T15:01:32.733Z,17.73
2022-08-17T15:04:18.611Z,21.45
2022-08-17T15:07:06.500Z,18.15
2022-08-17T15:09:51.959Z,17.58
2022-08-17T15:12:37.295Z,17.00
2022-08-17T15:15:22.989Z,19.42
2022-08-17T15:18:08.602Z,17.77
2022-08-17T15:20:53.781Z,17.15
2022-08-17T15:23:39.790Z,16.75
2022-08-17T15:26:26.485Z,17.17
2022-08-17T15:29:12.090Z,16.67
2022-08-17T15:32:00.686Z,17.63
2022-08-17T15:34:46.378Z,16.80
2022-08-17T15:37:32.136Z,20.27
2022-08-17T15:40:17.619Z,17.52
2022-08-17T15:43:07.969Z,18.85
2022-08-17T15:46:00.825Z,15.55
2022-08-17T15:48:48.616Z,18.67
2022-08-17T15:51:35.461Z,18.23
2022-08-17T15:54:22.835Z,15.38
2022-08-17T15:57:09.087Z,14.00
2022-08-17T15:59:58.751Z,13.77
2022-08-17T16:03:45.011Z,14.13
2022-08-17T16:05:51.515Z,14.68
2022-08-17T16:08:38.611Z,12.70
2022-08-17T16:11:25.879Z,15.35
2022-08-17T16:14:11.461Z,14.73
2022-08-17T16:16:59.588Z,13.65
2022-08-17T16:19:45.455Z,14.80
2022-08-17T16:22:36.628Z,14.85
2022-08-17T16:25:52.073Z,14.18
2022-08-17T16:28:36.281Z,14.13
2022-08-17T16:31:22.395Z,15.20
2022-08-17T16:34:15.652Z,16.23
2022-08-17T16:37:02.238Z,15.88
2022-08-17T16:39:47.917Z,16.65
2022-08-17T16:42:37.162Z,14.00
2022-08-17T16:45:25.992Z,14.10
2022-08-17T16:48:12.766Z,13.45
2022-08-17T16:51:03.759Z,14.75
2022-08-17T16:53:59.332Z,15.90
2022-08-17T16:56:45.883Z,16.17
2022-08-17T16:59:40.993Z,18.95
2022-08-17T17:02:40.514Z,15.10
2022-08-17T17:05:51.404Z,14.05
2022-08-17T17:08:52.120Z,15.23
2022-08-17T17:11:44.959Z,15.55
2022-08-17T17:14:36.822Z,16.85
2022-08-17T17:17:33.041Z,14.55
2022-08-17T17:20:25.370Z,14.60
2022-08-17T17:23:27.452Z,15.05
2022-08-17T17:26:32.129Z,16.65
2022-08-17T17:29:46.584Z,13.65
2022-08-17T17:32:45.404Z,12.70
2022-08-17T17:35:35.980Z,16.05
2022-08-17T17:38:29.462Z,14.30
2022-08-17T17:41:42.114Z,14.15
2022-08-17T17:44:43.357Z,12.77
2022-08-17T17:47:31.092Z,13.43
2022-08-17T17:50:18.493Z,11.75
2022-08-17T17:53:12.344Z,13.32
2022-08-17T17:56:33.084Z,11.90
2022-08-17T17:59:44.371Z,12.90
2022-08-17T18:02:51.475Z,11.23
2022-08-17T18:06:10.622Z,12.82
2022-08-17T18:09:34.079Z,10.70
2022-08-17T18:12:38.143Z,10.98
2022-08-17T18:15:36.693Z,11.25
2022-08-17T18:18:38.944Z,10.40
2022-08-17T18:21:32.199Z,10.30
2022-08-17T18:24:29.466Z,9.98
2022-08-17T18:27:33.963Z,10.48
2022-08-17T18:30:20.006Z,10.00
2022-08-17T18:33:23.671Z,9.65
2022-08-17T18:36:10.909Z,11.57
2022-08-17T18:39:11.942Z,11.77
2022-08-17T18:42:00.353Z,10.35
2022-08-17T18:44:45.580Z,10.52
2022-08-17T18:47:31.465Z,12.40
2022-08-17T18:50:25.529Z,10.52
2022-08-17T18:53:40.776Z,9.95
2022-08-17T18:56:32.839Z,11.40
2022-08-17T18:59:18.160Z,9.90
2022-08-17T19:02:19.761Z,10.45
2022-08-17T19:05:38.802Z,21.33
2022-08-17T19:08:35.913Z,12.45
2022-08-17T19:11:34.980Z,9.35
2022-08-17T19:14:21.761Z,10.88
2022-08-17T19:17:16.659Z,10.88
2022-08-17T19:20:28.674Z,11.45
2022-08-17T19:23:27.066Z,15.27
2022-08-17T19:26:55.345Z,13.93
2022-08-17T19:29:42.305Z,14.57
2022-08-17T19:32:33.931Z,14.50
2022-08-17T19:35:23.553Z,13.80
2022-08-17T19:38:20.669Z,13.75
2022-08-17T19:41:20.156Z,15.15
2022-08-17T19:44:16.797Z,13.73
2022-08-17T19:47:19.548Z,14.43
2022-08-17T19:50:33.006Z,15.90
2022-08-17T19:54:03.844Z,14.20
2022-08-17T19:57:12.186Z,15.23
2022-08-17T20:00:12.834Z,16.38
2022-08-17T20:03:31.906Z,13.93
2022-08-17T20:06:18.848Z,14.13
2022-08-17T20:09:15.336Z,14.43
2022-08-17T20:12:09.641Z,14.43
2022-08-17T20:15:00.156Z,17.60
2022-08-17T20:17:47.671Z,14.70
2022-08-17T20:20:54.803Z,16.15
2022-08-17T20:23:57.534Z,16.23
2022-08-17T20:26:58.562Z,14.80
2022-08-17T20:30:29.781Z,15.27
2022-08-17T20:33:34.306Z,13.35
2022-08-17T20:36:22.558Z,13.95
2022-08-17T20:39:34.042Z,13.55
2022-08-17T20:42:20.100Z,12.70
2022-08-17T20:45:20.770Z,13.80
2022-08-17T20:48:36.352Z,14.70
2022-08-17T20:51:24.022Z,11.82
2022-08-17T20:54:42.194Z,12.82
2022-08-17T20:57:36.437Z,11.68
2022-08-17T21:00:27.887Z,13.57
2022-08-17T21:03:26.617Z,13.52
2022-08-17T21:06:16.888Z,10.35
2022-08-17T21:09:12.681Z,10.45
2022-08-17T21:12:04.568Z,10.02
2022-08-17T21:15:32.442Z,9.73
2022-08-17T21:18:27.273Z,10.82
2022-08-17T21:21:46.511Z,13.00
2022-08-17T21:24:55.179Z,9.27
2022-08-17T21:27:58.898Z,8.80
2022-08-17T21:30:50.730Z,9.27
2022-08-17T21:33:39.486Z,9.52
2022-08-17T21:36:26.753Z,9.43
2022-08-17T21:39:16.545Z,8.18
2022-08-17T21:42:07.253Z,8.38
2022-08-17T21:44:57.938Z,9.90
2022-08-17T21:47:49.067Z,8.15
2022-08-17T21:50:35.580Z,7.80
2022-08-17T21:53:34.001Z,7.43
2022-08-17T21:56:34.932Z,7.97
2022-08-17T21:59:29.132Z,7.93
2022-08-17T22:02:22.075Z,9.65
2022-08-17T22:05:12.793Z,8.57
2022-08-17T22:08:17.925Z,9.48
2022-08-17T22:11:03.673Z,10.68
2022-08-17T22:13:48.846Z,9.02
2022-08-17T22:16:34.933Z,9.00
2022-08-17T22:19:21.054Z,10.95
2022-08-17T22:22:10.753Z,9.23
2022-08-17T22:25:20.582Z,9.35
2022-08-17T22:28:36.576Z,10.30
2022-08-17T22:31:54.194Z,10.57
2022-08-17T22:34:39.567Z,7.85
2022-08-17T22:37:29.030Z,9.55
2022-08-17T22:40:30.771Z,9.25
2022-08-17T22:43:21.126Z,8.90
2022-08-17T22:46:12.346Z,8.50
2022-08-17T22:48:59.562Z,8.85
2022-08-17T22:51:45.692Z,9.98
2022-08-17T22:54:50.145Z,8.75
2022-08-17T22:57:54.995Z,9.32
2022-08-17T23:00:46.568Z,7.70
2022-08-17T23:03:32.314Z,7.47
2022-08-17T23:06:17.306Z,8.13
2022-08-17T23:09:05.981Z,8.55
2022-08-17T23:11:58.858Z,9.70
2022-08-17T23:14:46.960Z,7.45
2022-08-17T23:17:37.375Z,8.55
2022-08-17T23:20:22.851Z,9.88
2022-08-17T23:23:08.997Z,8.30
2022-08-17T23:25:54.788Z,8.35
2022-08-17T23:28:43.666Z,9.07
2022-08-17T23:31:32.889Z,8.00
2022-08-17T23:34:18.895Z,9.23
2022-08-17T23:37:04.511Z,10.40
2022-08-17T23:39:50.104Z,7.97
2022-08-17T23:42:35.626Z,7.65
2022-08-17T23:45:20.986Z,7.97
2022-08-17T23:48:07.869Z,7.22
2022-08-17T23:50:56.212Z,10.25
2022-08-17T23:53:47.491Z,6.97
2022-08-17T23:56:33.485Z,6.95
2022-08-17T23:59:20.469Z,8.05
